sensor_id;sensor_type;location;lat;lon;timestamp;pressure;altitude;pressure_sealevel;temperature;humidity
69221;BME280;56331;51.992;20.910;2023-06-05T00:00:16;100867.06;;;25.36;33.61
69221;BME280;56331;51.992;20.910;2023-06-05T00:02:44;100864.86;;;25.35;33.59
69221;BME280;56331;51.992;20.910;2023-06-05T00:05:12;100866.84;;;25.35;33.75
69221;BME280;56331;51.992;20.910;2023-06-05T00:07:38;100867.18;;;25.33;33.65
69221;BME280;56331;51.992;20.910;2023-06-05T00:10:06;100863.83;;;25.27;33.51
69221;BME280;56331;51.992;20.910;2023-06-05T00:12:34;100868.72;;;25.24;33.46
69221;BME280;56331;51.992;20.910;2023-06-05T00:15:01;100869.86;;;25.23;33.30
69221;BME280;56331;51.992;20.910;2023-06-05T00:17:28;100875.22;;;25.22;33.16
69221;BME280;56331;51.992;20.910;2023-06-05T00:19:59;100866.64;;;25.21;33.17
69221;BME280;56331;51.992;20.910;2023-06-05T00:22:27;100873.85;;;25.16;33.16
69221;BME280;56331;51.992;20.910;2023-06-05T00:24:59;100870.11;;;25.18;33.08
69221;BME280;56331;51.992;20.910;2023-06-05T00:27:28;100870.48;;;25.17;33.01
69221;BME280;56331;51.992;20.910;2023-06-05T00:29:54;100869.89;;;25.17;32.83
69221;BME280;56331;51.992;20.910;2023-06-05T00:32:21;100866.60;;;25.15;32.84
69221;BME280;56331;51.992;20.910;2023-06-05T00:34:47;100868.70;;;25.12;32.89
69221;BME280;56331;51.992;20.910;2023-06-05T00:37:16;100864.86;;;25.10;32.77
69221;BME280;56331;51.992;20.910;2023-06-05T00:39:42;100871.71;;;25.13;32.60
69221;BME280;56331;51.992;20.910;2023-06-05T00:42:09;100867.19;;;25.15;32.56
69221;BME280;56331;51.992;20.910;2023-06-05T00:44:36;100869.05;;;25.10;32.54
69221;BME280;56331;51.992;20.910;2023-06-05T00:47:03;100867.90;;;25.11;32.50
69221;BME280;56331;51.992;20.910;2023-06-05T00:49:31;100865.70;;;25.11;32.45
69221;BME280;56331;51.992;20.910;2023-06-05T00:51:58;100864.86;;;25.10;32.36
69221;BME280;56331;51.992;20.910;2023-06-05T00:54:25;100868.02;;;25.09;32.35
69221;BME280;56331;51.992;20.910;2023-06-05T00:56:52;100866.84;;;25.10;32.26
69221;BME280;56331;51.992;20.910;2023-06-05T00:59:23;100867.43;;;25.09;32.26
69221;BME280;56331;51.992;20.910;2023-06-05T01:01:49;100872.20;;;25.09;32.21
69221;BME280;56331;51.992;20.910;2023-06-05T01:04:17;100874.06;;;25.11;32.16
69221;BME280;56331;51.992;20.910;2023-06-05T01:06:43;100873.69;;;25.13;32.13
69221;BME280;56331;51.992;20.910;2023-06-05T01:09:10;100864.42;;;25.08;32.09
69221;BME280;56331;51.992;20.910;2023-06-05T01:11:43;100863.25;;;25.09;32.01
69221;BME280;56331;51.992;20.910;2023-06-05T01:14:18;100863.03;;;25.08;31.91
69221;BME280;56331;51.992;20.910;2023-06-05T01:16:47;100863.48;;;25.04;32.09
69221;BME280;56331;51.992;20.910;2023-06-05T01:19:14;100859.99;;;25.07;31.83
69221;BME280;56331;51.992;20.910;2023-06-05T01:21:42;100858.38;;;25.06;31.85
69221;BME280;56331;51.992;20.910;2023-06-05T01:24:09;100858.16;;;25.05;31.83
69221;BME280;56331;51.992;20.910;2023-06-05T01:26:43;100859.77;;;25.06;31.77
69221;BME280;56331;51.992;20.910;2023-06-05T01:29:11;100859.77;;;25.06;31.72
69221;BME280;56331;51.992;20.910;2023-06-05T01:31:41;100862.56;;;25.06;31.64
69221;BME280;56331;51.992;20.910;2023-06-05T01:34:09;100860.95;;;25.05;31.59
69221;BME280;56331;51.992;20.910;2023-06-05T01:36:40;100865.47;;;25.04;31.60
69221;BME280;56331;51.992;20.910;2023-06-05T01:39:07;100863.27;;;25.03;31.56
69221;BME280;56331;51.992;20.910;2023-06-05T01:41:36;100866.64;;;25.03;31.62
69221;BME280;56331;51.992;20.910;2023-06-05T01:44:05;100870.23;;;25.03;31.46
69221;BME280;56331;51.992;20.910;2023-06-05T01:46:34;100873.36;;;25.02;31.55
69221;BME280;56331;51.992;20.910;2023-06-05T01:49:01;100870.22;;;24.97;31.64
69221;BME280;56331;51.992;20.910;2023-06-05T01:51:28;100862.11;;;24.98;31.60
69221;BME280;56331;51.992;20.910;2023-06-05T01:53:55;100865.11;;;24.99;31.49
69221;BME280;56331;51.992;20.910;2023-06-05T01:56:21;100862.80;;;25.01;31.46
69221;BME280;56331;51.992;20.910;2023-06-05T01:58:49;100857.56;;;25.00;31.44
69221;BME280;56331;51.992;20.910;2023-06-05T02:01:16;100862.33;;;24.99;31.45
69221;BME280;56331;51.992;20.910;2023-06-05T02:03:42;100863.25;;;24.97;31.51
69221;BME280;56331;51.992;20.910;2023-06-05T02:06:10;100859.66;;;24.97;31.63
69221;BME280;56331;51.992;20.910;2023-06-05T02:08:37;100859.07;;;24.97;31.49
69221;BME280;56331;51.992;20.910;2023-06-05T02:11:03;100860.83;;;24.96;31.59
69221;BME280;56331;51.992;20.910;2023-06-05T02:13:31;100862.81;;;24.95;31.46
69221;BME280;56331;51.992;20.910;2023-06-05T02:15:59;100860.37;;;24.94;31.49
69221;BME280;56331;51.992;20.910;2023-06-05T02:18:26;100861.17;;;24.94;31.43
69221;BME280;56331;51.992;20.910;2023-06-05T02:20:54;100860.14;;;24.93;31.41
69221;BME280;56331;51.992;20.910;2023-06-05T02:23:23;100865.72;;;24.93;31.45
69221;BME280;56331;51.992;20.910;2023-06-05T02:25:50;100865.72;;;24.93;31.39
69221;BME280;56331;51.992;20.910;2023-06-05T02:28:16;100865.47;;;24.92;31.37
69221;BME280;56331;51.992;20.910;2023-06-05T02:30:43;100857.11;;;24.92;31.48
69221;BME280;56331;51.992;20.910;2023-06-05T02:33:11;100858.03;;;24.89;31.38
69221;BME280;56331;51.992;20.910;2023-06-05T02:35:37;100857.48;;;24.90;31.33
69221;BME280;56331;51.992;20.910;2023-06-05T02:38:07;100853.85;;;24.89;31.33
69221;BME280;56331;51.992;20.910;2023-06-05T02:40:34;100853.63;;;24.88;31.40
69221;BME280;56331;51.992;20.910;2023-06-05T02:43:00;100855.61;;;24.88;31.45
69221;BME280;56331;51.992;20.910;2023-06-05T02:45:27;100855.95;;;24.86;31.28
69221;BME280;56331;51.992;20.910;2023-06-05T02:47:53;100855.14;;;24.86;31.29
69221;BME280;56331;51.992;20.910;2023-06-05T02:50:20;100857.93;;;24.86;31.22
69221;BME280;56331;51.992;20.910;2023-06-05T02:52:46;100854.55;;;24.86;31.25
69221;BME280;56331;51.992;20.910;2023-06-05T02:55:12;100855.48;;;24.84;31.29
69221;BME280;56331;51.992;20.910;2023-06-05T02:57:39;100852.84;;;24.82;31.24
69221;BME280;56331;51.992;20.910;2023-06-05T03:00:10;100856.44;;;24.82;31.30
69221;BME280;56331;51.992;20.910;2023-06-05T03:02:38;100859.22;;;24.82;31.23
69221;BME280;56331;51.992;20.910;2023-06-05T03:05:05;100859.81;;;24.82;31.35
69221;BME280;56331;51.992;20.910;2023-06-05T03:07:37;100858.97;;;24.81;31.65
69221;BME280;56331;51.992;20.910;2023-06-05T03:10:05;100854.35;;;24.79;31.68
69221;BME280;56331;51.992;20.910;2023-06-05T03:12:31;100862.71;;;24.79;31.78
69221;BME280;56331;51.992;20.910;2023-06-05T03:14:57;100857.81;;;24.76;31.87
69221;BME280;56331;51.992;20.910;2023-06-05T03:17:24;100859.31;;;24.74;31.95
69221;BME280;56331;51.992;20.910;2023-06-05T03:19:51;100866.17;;;24.76;32.00
69221;BME280;56331;51.992;20.910;2023-06-05T03:22:17;100863.38;;;24.76;32.08
69221;BME280;56331;51.992;20.910;2023-06-05T03:24:45;100866.06;;;24.73;32.10
69221;BME280;56331;51.992;20.910;2023-06-05T03:27:11;100862.58;;;24.76;32.14
69221;BME280;56331;51.992;20.910;2023-06-05T03:29:37;100859.20;;;24.76;32.19
69221;BME280;56331;51.992;20.910;2023-06-05T03:32:04;100859.56;;;24.75;32.30
69221;BME280;56331;51.992;20.910;2023-06-05T03:34:33;100859.91;;;24.73;32.33
69221;BME280;56331;51.992;20.910;2023-06-05T03:37:02;100861.08;;;24.72;32.37
69221;BME280;56331;51.992;20.910;2023-06-05T03:39:28;100860.71;;;24.74;32.41
69221;BME280;56331;51.992;20.910;2023-06-05T03:41:55;100860.16;;;24.74;32.56
69221;BME280;56331;51.992;20.910;2023-06-05T03:44:21;100857.35;;;24.68;32.51
69221;BME280;56331;51.992;20.910;2023-06-05T03:46:48;100864.20;;;24.71;32.50
69221;BME280;56331;51.992;20.910;2023-06-05T03:49:15;100862.80;;;24.71;32.54
69221;BME280;56331;51.992;20.910;2023-06-05T03:51:41;100868.97;;;24.70;32.62
69221;BME280;56331;51.992;20.910;2023-06-05T03:54:09;100862.22;;;24.71;32.60
69221;BME280;56331;51.992;20.910;2023-06-05T03:56:36;100869.30;;;24.68;32.67
69221;BME280;56331;51.992;20.910;2023-06-05T03:59:04;100871.06;;;24.67;32.77
69221;BME280;56331;51.992;20.910;2023-06-05T04:01:38;100867.80;;;24.71;32.80
69221;BME280;56331;51.992;20.910;2023-06-05T04:04:05;100865.01;;;24.71;32.80
69221;BME280;56331;51.992;20.910;2023-06-05T04:06:31;100865.38;;;24.70;32.87
69221;BME280;56331;51.992;20.910;2023-06-05T04:08:58;100870.14;;;24.69;32.99
69221;BME280;56331;51.992;20.910;2023-06-05T04:11:25;100863.29;;;24.66;32.95
69221;BME280;56331;51.992;20.910;2023-06-05T04:13:56;100870.00;;;24.65;33.20
69221;BME280;56331;51.992;20.910;2023-06-05T04:16:22;100871.06;;;24.67;33.16
69221;BME280;56331;51.992;20.910;2023-06-05T04:18:48;100870.81;;;24.66;33.09
69221;BME280;56331;51.992;20.910;2023-06-05T04:21:14;100869.67;;;24.67;33.13
69221;BME280;56331;51.992;20.910;2023-06-05T04:23:41;100873.38;;;24.65;33.22
69221;BME280;56331;51.992;20.910;2023-06-05T04:26:07;100872.20;;;24.66;33.20
69221;BME280;56331;51.992;20.910;2023-06-05T04:28:34;100876.38;;;24.66;33.29
69221;BME280;56331;51.992;20.910;2023-06-05T04:31:01;100879.75;;;24.65;33.28
69221;BME280;56331;51.992;20.910;2023-06-05T04:33:28;100882.06;;;24.63;33.38
69221;BME280;56331;51.992;20.910;2023-06-05T04:35:54;100880.92;;;24.64;33.41
69221;BME280;56331;51.992;20.910;2023-06-05T04:38:21;100882.91;;;24.64;33.38
69221;BME280;56331;51.992;20.910;2023-06-05T04:40:48;100886.50;;;24.64;33.51
69221;BME280;56331;51.992;20.910;2023-06-05T04:43:16;100879.87;;;24.63;33.50
69221;BME280;56331;51.992;20.910;2023-06-05T04:45:42;100888.00;;;24.62;33.54
69221;BME280;56331;51.992;20.910;2023-06-05T04:48:08;100884.05;;;24.63;33.62
69221;BME280;56331;51.992;20.910;2023-06-05T04:50:35;100885.22;;;24.62;33.72
69221;BME280;56331;51.992;20.910;2023-06-05T04:53:03;100880.34;;;24.59;33.75
69221;BME280;56331;51.992;20.910;2023-06-05T04:55:29;100881.48;;;24.58;33.70
69221;BME280;56331;51.992;20.910;2023-06-05T04:57:56;100884.52;;;24.59;33.74
69221;BME280;56331;51.992;20.910;2023-06-05T05:00:24;100889.62;;;24.57;33.71
69221;BME280;56331;51.992;20.910;2023-06-05T05:02:50;100882.99;;;24.55;33.83
69221;BME280;56331;51.992;20.910;2023-06-05T05:05:19;100882.66;;;24.57;33.81
69221;BME280;56331;51.992;20.910;2023-06-05T05:07:46;100889.50;;;24.59;33.72
69221;BME280;56331;51.992;20.910;2023-06-05T05:10:14;100886.03;;;24.56;33.58
69221;BME280;56331;51.992;20.910;2023-06-05T05:12:40;100875.00;;;24.54;33.58
69221;BME280;56331;51.992;20.910;2023-06-05T05:15:08;100888.23;;;24.57;33.49
69221;BME280;56331;51.992;20.910;2023-06-05T05:17:34;100890.20;;;24.56;33.45
69221;BME280;56331;51.992;20.910;2023-06-05T05:20:00;100895.30;;;24.54;33.44
69221;BME280;56331;51.992;20.910;2023-06-05T05:22:28;100892.62;;;24.52;33.46
69221;BME280;56331;51.992;20.910;2023-06-05T05:24:54;100896.59;;;24.51;33.38
69221;BME280;56331;51.992;20.910;2023-06-05T05:27:20;100893.80;;;24.51;33.39
69221;BME280;56331;51.992;20.910;2023-06-05T05:29:46;100889.73;;;24.48;33.42
69221;BME280;56331;51.992;20.910;2023-06-05T05:32:13;100885.42;;;24.44;33.49
69221;BME280;56331;51.992;20.910;2023-06-05T05:34:39;100891.80;;;24.45;33.57
69221;BME280;56331;51.992;20.910;2023-06-05T05:37:06;100889.34;;;24.43;33.60
69221;BME280;56331;51.992;20.910;2023-06-05T05:39:33;100891.43;;;24.40;33.70
69221;BME280;56331;51.992;20.910;2023-06-05T05:41:59;100890.26;;;24.41;33.97
69221;BME280;56331;51.992;20.910;2023-06-05T05:44:27;100898.14;;;24.39;34.20
69221;BME280;56331;51.992;20.910;2023-06-05T05:46:54;100892.83;;;24.40;34.40
69221;BME280;56331;51.992;20.910;2023-06-05T05:49:20;100895.36;;;24.39;34.19
69221;BME280;56331;51.992;20.910;2023-06-05T05:51:46;100897.33;;;24.39;34.17
69221;BME280;56331;51.992;20.910;2023-06-05T05:54:13;100895.94;;;24.39;34.41
69221;BME280;56331;51.992;20.910;2023-06-05T05:56:39;100891.29;;;24.37;34.55
69221;BME280;56331;51.992;20.910;2023-06-05T05:59:05;100897.45;;;24.36;34.60
69221;BME280;56331;51.992;20.910;2023-06-05T06:01:32;100893.27;;;24.36;34.45
69221;BME280;56331;51.992;20.910;2023-06-05T06:03:58;100900.23;;;24.36;34.56
69221;BME280;56331;51.992;20.910;2023-06-05T06:06:24;100890.81;;;24.35;34.55
69221;BME280;56331;51.992;20.910;2023-06-05T06:08:50;100898.61;;;24.35;34.78
69221;BME280;56331;51.992;20.910;2023-06-05T06:11:17;100903.12;;;24.34;34.67
69221;BME280;56331;51.992;20.910;2023-06-05T06:13:44;100900.92;;;24.33;34.68
69221;BME280;56331;51.992;20.910;2023-06-05T06:16:11;100901.51;;;24.33;34.67
69221;BME280;56331;51.992;20.910;2023-06-05T06:18:37;100904.84;;;24.32;34.70
69221;BME280;56331;51.992;20.910;2023-06-05T06:21:08;100904.84;;;24.32;34.63
69221;BME280;56331;51.992;20.910;2023-06-05T06:23:32;100911.58;;;24.31;34.68
69221;BME280;56331;51.992;20.910;2023-06-05T06:25:59;100908.22;;;24.32;34.92
69221;BME280;56331;51.992;20.910;2023-06-05T06:28:25;100909.61;;;24.32;35.02
69221;BME280;56331;51.992;20.910;2023-06-05T06:30:52;100911.58;;;24.31;34.95
69221;BME280;56331;51.992;20.910;2023-06-05T06:33:18;100900.23;;;24.30;35.12
69221;BME280;56331;51.992;20.910;2023-06-05T06:35:45;100910.63;;;24.27;36.27
69221;BME280;56331;51.992;20.910;2023-06-05T06:38:11;100908.09;;;24.22;35.89
69221;BME280;56331;51.992;20.910;2023-06-05T06:40:40;100904.14;;;24.17;36.22
69221;BME280;56331;51.992;20.910;2023-06-05T06:43:06;100898.53;;;24.11;36.39
69221;BME280;56331;51.992;20.910;2023-06-05T06:45:33;100905.84;;;24.09;36.51
69221;BME280;56331;51.992;20.910;2023-06-05T06:47:59;100905.95;;;24.07;36.66
69221;BME280;56331;51.992;20.910;2023-06-05T06:50:25;100899.55;;;24.06;36.80
69221;BME280;56331;51.992;20.910;2023-06-05T06:52:52;100904.56;;;24.07;36.62
69221;BME280;56331;51.992;20.910;2023-06-05T06:55:18;100903.39;;;24.08;36.53
69221;BME280;56331;51.992;20.910;2023-06-05T06:57:44;100905.70;;;24.06;36.45
69221;BME280;56331;51.992;20.910;2023-06-05T07:00:11;100905.70;;;24.06;36.38
69221;BME280;56331;51.992;20.910;2023-06-05T07:02:39;100907.57;;;24.08;36.26
69221;BME280;56331;51.992;20.910;2023-06-05T07:05:06;100901.53;;;24.06;36.19
69221;BME280;56331;51.992;20.910;2023-06-05T07:07:35;100905.12;;;24.06;36.20
69221;BME280;56331;51.992;20.910;2023-06-05T07:10:01;100909.88;;;24.06;36.13
69221;BME280;56331;51.992;20.910;2023-06-05T07:12:28;100906.88;;;24.05;36.00
69221;BME280;56331;51.992;20.910;2023-06-05T07:14:55;100910.69;;;24.06;36.03
69221;BME280;56331;51.992;20.910;2023-06-05T07:17:21;100909.30;;;24.06;35.93
69221;BME280;56331;51.992;20.910;2023-06-05T07:19:48;100912.66;;;24.06;36.09
69221;BME280;56331;51.992;20.910;2023-06-05T07:22:14;100908.95;;;24.01;36.58
69221;BME280;56331;51.992;20.910;2023-06-05T07:24:41;100916.46;;;24.01;36.60
69221;BME280;56331;51.992;20.910;2023-06-05T07:27:07;100912.19;;;24.03;36.74
69221;BME280;56331;51.992;20.910;2023-06-05T07:29:34;100908.27;;;24.05;36.76
69221;BME280;56331;51.992;20.910;2023-06-05T07:32:00;100908.27;;;24.05;36.82
69221;BME280;56331;51.992;20.910;2023-06-05T07:34:28;100905.23;;;24.03;36.81
69221;BME280;56331;51.992;20.910;2023-06-05T07:36:54;100913.23;;;23.99;37.13
69221;BME280;56331;51.992;20.910;2023-06-05T07:39:22;100912.75;;;23.97;37.29
69221;BME280;56331;51.992;20.910;2023-06-05T07:41:49;100910.58;;;24.09;37.18
69221;BME280;56331;51.992;20.910;2023-06-05T07:44:17;100907.26;;;24.21;36.64
69221;BME280;56331;51.992;20.910;2023-06-05T07:46:45;100912.39;;;24.32;36.33
69221;BME280;56331;51.992;20.910;2023-06-05T07:49:12;100896.05;;;24.36;35.91
69221;BME280;56331;51.992;20.910;2023-06-05T07:51:39;100902.79;;;24.41;35.75
69221;BME280;56331;51.992;20.910;2023-06-05T07:54:10;100902.94;;;24.45;35.65
69221;BME280;56331;51.992;20.910;2023-06-05T07:56:39;100900.88;;;24.48;35.53
69221;BME280;56331;51.992;20.910;2023-06-05T07:59:07;100898.31;;;24.49;35.28
69221;BME280;56331;51.992;20.910;2023-06-05T08:01:35;100899.12;;;24.50;35.37
69221;BME280;56331;51.992;20.910;2023-06-05T08:04:03;100898.20;;;24.52;35.46
69221;BME280;56331;51.992;20.910;2023-06-05T08:06:30;100904.58;;;24.52;35.37
69221;BME280;56331;51.992;20.910;2023-06-05T08:09:01;100903.77;;;24.52;35.61
69221;BME280;56331;51.992;20.910;2023-06-05T08:11:28;100901.80;;;24.52;35.41
69221;BME280;56331;51.992;20.910;2023-06-05T08:13:59;100905.75;;;24.51;35.67
69221;BME280;56331;51.992;20.910;2023-06-05T08:16:30;100911.18;;;24.48;35.76
69221;BME280;56331;51.992;20.910;2023-06-05T08:18:56;100909.56;;;24.47;35.70
69221;BME280;56331;51.992;20.910;2023-06-05T08:21:23;100907.00;;;24.48;35.59
69221;BME280;56331;51.992;20.910;2023-06-05T08:23:49;100905.27;;;24.49;35.49
69221;BME280;56331;51.992;20.910;2023-06-05T08:26:20;100897.50;;;24.49;35.40
69221;BME280;56331;51.992;20.910;2023-06-05T08:28:48;100896.45;;;24.47;35.34
69221;BME280;56331;51.992;20.910;2023-06-05T08:31:15;100895.64;;;24.47;35.28
69221;BME280;56331;51.992;20.910;2023-06-05T08:33:42;100901.80;;;24.46;35.21
69221;BME280;56331;51.992;20.910;2023-06-05T08:36:09;100891.88;;;24.42;35.23
69221;BME280;56331;51.992;20.910;2023-06-05T08:38:35;100904.41;;;24.42;35.18
69221;BME280;56331;51.992;20.910;2023-06-05T08:41:03;100905.80;;;24.42;35.13
69221;BME280;56331;51.992;20.910;2023-06-05T08:43:40;100904.19;;;24.41;35.08
69221;BME280;56331;51.992;20.910;2023-06-05T08:46:10;100902.56;;;24.40;35.05
69221;BME280;56331;51.992;20.910;2023-06-05T08:48:42;100889.09;;;24.42;34.82
69221;BME280;56331;51.992;20.910;2023-06-05T08:51:10;100890.15;;;24.38;35.11
69221;BME280;56331;51.992;20.910;2023-06-05T08:53:39;100888.76;;;24.38;34.86
69221;BME280;56331;51.992;20.910;2023-06-05T08:56:06;100892.45;;;24.36;35.04
69221;BME280;56331;51.992;20.910;2023-06-05T08:58:39;100893.59;;;24.35;34.99
69221;BME280;56331;51.992;20.910;2023-06-05T09:01:03;100894.98;;;24.35;34.98
69221;BME280;56331;51.992;20.910;2023-06-05T09:03:39;100899.28;;;24.32;34.99
69221;BME280;56331;51.992;20.910;2023-06-05T09:06:03;100892.90;;;24.32;34.83
69221;BME280;56331;51.992;20.910;2023-06-05T09:08:32;100893.70;;;24.32;34.71
69221;BME280;56331;51.992;20.910;2023-06-05T09:11:19;100887.59;;;24.33;34.47
69221;BME280;56331;51.992;20.910;2023-06-05T09:13:46;100891.40;;;24.34;34.25
69221;BME280;56331;51.992;20.910;2023-06-05T09:16:13;100881.17;;;24.32;34.02
69221;BME280;56331;51.992;20.910;2023-06-05T09:18:56;100888.98;;;24.33;34.06
69221;BME280;56331;51.992;20.910;2023-06-05T09:21:25;100881.77;;;24.32;33.93
69221;BME280;56331;51.992;20.910;2023-06-05T09:23:53;100883.74;;;24.31;33.81
69221;BME280;56331;51.992;20.910;2023-06-05T09:26:19;100882.13;;;24.30;33.66
69221;BME280;56331;51.992;20.910;2023-06-05T09:28:54;100873.66;;;24.33;33.46
69221;BME280;56331;51.992;20.910;2023-06-05T09:31:22;100877.11;;;24.30;33.16
69221;BME280;56331;51.992;20.910;2023-06-05T09:33:56;100878.06;;;24.28;33.26
69221;BME280;56331;51.992;20.910;2023-06-05T09:36:24;100883.38;;;24.27;33.05
69221;BME280;56331;51.992;20.910;2023-06-05T09:38:52;100878.39;;;24.26;33.17
69221;BME280;56331;51.992;20.910;2023-06-05T09:41:18;100879.45;;;24.28;33.13
69221;BME280;56331;51.992;20.910;2023-06-05T09:43:44;100881.17;;;24.26;32.80
69221;BME280;56331;51.992;20.910;2023-06-05T09:46:13;100874.58;;;24.24;32.50
69221;BME280;56331;51.992;20.910;2023-06-05T09:48:41;100880.70;;;24.24;32.56
69221;BME280;56331;51.992;20.910;2023-06-05T09:51:14;100877.11;;;24.23;32.67
69221;BME280;56331;51.992;20.910;2023-06-05T09:53:43;100876.89;;;24.22;32.63
69221;BME280;56331;51.992;20.910;2023-06-05T09:56:14;100877.47;;;24.22;32.19
69221;BME280;56331;51.992;20.910;2023-06-05T09:58:49;100876.08;;;24.22;32.05
69221;BME280;56331;51.992;20.910;2023-06-05T10:01:21;100871.32;;;24.22;31.95
69221;BME280;56331;51.992;20.910;2023-06-05T10:03:55;100866.89;;;24.21;31.86
69221;BME280;56331;51.992;20.910;2023-06-05T10:06:19;100861.69;;;24.20;31.87
69221;BME280;56331;51.992;20.910;2023-06-05T10:08:48;100866.45;;;24.19;32.03
69221;BME280;56331;51.992;20.910;2023-06-05T10:11:16;100859.48;;;24.19;32.11
69221;BME280;56331;51.992;20.910;2023-06-05T10:13:43;100860.63;;;24.18;32.17
69221;BME280;56331;51.992;20.910;2023-06-05T10:16:11;100856.45;;;24.18;32.18
69221;BME280;56331;51.992;20.910;2023-06-05T10:18:38;100848.69;;;24.18;32.17
69221;BME280;56331;51.992;20.910;2023-06-05T10:21:04;100848.91;;;24.19;32.12
69221;BME280;56331;51.992;20.910;2023-06-05T10:23:32;100850.08;;;24.18;32.26
69221;BME280;56331;51.992;20.910;2023-06-05T10:26:01;100853.45;;;24.17;32.21
69221;BME280;56331;51.992;20.910;2023-06-05T10:28:36;100855.05;;;24.18;32.26
69221;BME280;56331;51.992;20.910;2023-06-05T10:31:21;100845.68;;;24.17;32.26
69221;BME280;56331;51.992;20.910;2023-06-05T10:34:06;100850.99;;;24.16;32.30
69221;BME280;56331;51.992;20.910;2023-06-05T10:39:25;100843.81;;;24.15;32.44
69221;BME280;56331;51.992;20.910;2023-06-05T10:41:54;100844.03;;;24.16;32.40
69221;BME280;56331;51.992;20.910;2023-06-05T10:44:41;100841.83;;;24.15;32.45
69221;BME280;56331;51.992;20.910;2023-06-05T10:52:46;100840.44;;;24.15;32.50
69221;BME280;56331;51.992;20.910;2023-06-05T10:55:14;100825.94;;;24.16;32.49
69221;BME280;56331;51.992;20.910;2023-06-05T11:00:30;100829.09;;;24.14;32.48
69221;BME280;56331;51.992;20.910;2023-06-05T11:02:58;100824.44;;;24.12;33.95
69221;BME280;56331;51.992;20.910;2023-06-05T11:05:26;100817.00;;;24.10;34.93
69221;BME280;56331;51.992;20.910;2023-06-05T11:08:13;100818.62;;;24.11;36.10
69221;BME280;56331;51.992;20.910;2023-06-05T11:13:54;100816.45;;;24.17;36.40
69221;BME280;56331;51.992;20.910;2023-06-05T11:16:29;100807.98;;;24.19;36.03
69221;BME280;56331;51.992;20.910;2023-06-05T11:22:09;100819.56;;;24.21;35.55
69221;BME280;56331;51.992;20.910;2023-06-05T11:24:37;100815.39;;;24.21;35.48
69221;BME280;56331;51.992;20.910;2023-06-05T11:27:04;100805.89;;;24.22;35.24
69221;BME280;56331;51.992;20.910;2023-06-05T11:29:32;100810.88;;;24.23;35.12
69221;BME280;56331;51.992;20.910;2023-06-05T11:31:59;100810.55;;;24.24;35.04
69221;BME280;56331;51.992;20.910;2023-06-05T11:34:26;100813.08;;;24.23;34.98
69221;BME280;56331;51.992;20.910;2023-06-05T11:36:54;100813.55;;;24.26;35.00
69221;BME280;56331;51.992;20.910;2023-06-05T11:39:20;100806.37;;;24.24;35.05
69221;BME280;56331;51.992;20.910;2023-06-05T11:41:49;100805.20;;;24.26;35.04
69221;BME280;56331;51.992;20.910;2023-06-05T11:44:32;100803.22;;;24.26;34.91
69221;BME280;56331;51.992;20.910;2023-06-05T11:46:59;100804.61;;;24.26;34.89
69221;BME280;56331;51.992;20.910;2023-06-05T11:49:27;100799.85;;;24.27;34.71
69221;BME280;56331;51.992;20.910;2023-06-05T11:51:54;100806.81;;;24.27;34.88
69221;BME280;56331;51.992;20.910;2023-06-05T11:54:25;100800.44;;;24.26;34.86
69221;BME280;56331;51.992;20.910;2023-06-05T11:56:57;100794.53;;;24.28;34.86
69221;BME280;56331;51.992;20.910;2023-06-05T11:59:24;100796.48;;;24.27;34.90
69221;BME280;56331;51.992;20.910;2023-06-05T12:01:51;100793.95;;;24.28;34.72
69221;BME280;56331;51.992;20.910;2023-06-05T12:04:19;100787.21;;;24.29;34.69
69221;BME280;56331;51.992;20.910;2023-06-05T12:06:46;100783.95;;;24.27;35.49
69221;BME280;56331;51.992;20.910;2023-06-05T12:09:14;100783.63;;;24.22;36.66
69221;BME280;56331;51.992;20.910;2023-06-05T12:11:43;100790.34;;;24.21;37.11
69221;BME280;56331;51.992;20.910;2023-06-05T12:14:12;100789.30;;;24.26;37.24
69221;BME280;56331;51.992;20.910;2023-06-05T12:16:40;100790.58;;;24.29;37.03
69221;BME280;56331;51.992;20.910;2023-06-05T12:19:12;100788.02;;;24.30;36.97
69221;BME280;56331;51.992;20.910;2023-06-05T12:21:39;100786.07;;;24.30;36.88
69221;BME280;56331;51.992;20.910;2023-06-05T12:24:06;100778.86;;;24.29;37.08
69221;BME280;56331;51.992;20.910;2023-06-05T12:29:20;100779.34;;;24.25;37.40
69221;BME280;56331;51.992;20.910;2023-06-05T12:31:51;100776.30;;;24.42;38.10
69221;BME280;56331;51.992;20.910;2023-06-05T12:34:18;100773.77;;;27.76;33.22
69221;BME280;56331;51.992;20.910;2023-06-05T12:36:45;100766.40;;;29.30;31.37
69221;BME280;56331;51.992;20.910;2023-06-05T12:39:13;100767.17;;;30.22;29.79
69221;BME280;56331;51.992;20.910;2023-06-05T12:41:40;100762.64;;;30.89;28.33
69221;BME280;56331;51.992;20.910;2023-06-05T12:44:06;100765.47;;;31.35;27.91
69221;BME280;56331;51.992;20.910;2023-06-05T12:46:37;100755.93;;;31.75;27.11
69221;BME280;56331;51.992;20.910;2023-06-05T12:49:04;100759.41;;;31.93;27.00
69221;BME280;56331;51.992;20.910;2023-06-05T12:51:31;100757.20;;;32.24;26.88
69221;BME280;56331;51.992;20.910;2023-06-05T12:53:58;100749.52;;;32.43;26.48
69221;BME280;56331;51.992;20.910;2023-06-05T12:56:25;100752.39;;;32.54;26.34
69221;BME280;56331;51.992;20.910;2023-06-05T12:58:57;100754.11;;;32.88;25.79
69221;BME280;56331;51.992;20.910;2023-06-05T13:01:24;100744.81;;;32.91;25.91
69221;BME280;56331;51.992;20.910;2023-06-05T13:03:52;100744.56;;;33.08;25.92